sensor_id;sensor_type;location;lat;lon;timestamp;pressure;altitude;pressure_sealevel;temperature;humidity
67397;BME280;57728;50.448;18.824;2023-03-14T00:00:00;96344.56;;;10.91;49.08
67397;BME280;57728;50.448;18.824;2023-03-14T00:02:02;96341.03;;;10.90;49.24
67397;BME280;57728;50.448;18.824;2023-03-14T00:04:04;96330.41;;;10.94;49.29
67397;BME280;57728;50.448;18.824;2023-03-14T00:06:07;96332.31;;;10.88;49.58
67397;BME280;57728;50.448;18.824;2023-03-14T00:08:09;96290.41;;;10.69;49.61
67397;BME280;57728;50.448;18.824;2023-03-14T00:10:13;96317.63;;;10.94;49.63
67397;BME280;57728;50.448;18.824;2023-03-14T00:12:16;96327.13;;;11.02;49.67
67397;BME280;57728;50.448;18.824;2023-03-14T00:14:18;96298.56;;;10.94;49.61
67397;BME280;57728;50.448;18.824;2023-03-14T00:16:20;96309.41;;;11.05;49.69
67397;BME280;57728;50.448;18.824;2023-03-14T00:18:22;96303.97;;;11.05;49.63
67397;BME280;57728;50.448;18.824;2023-03-14T00:20:26;96296.88;;;11.04;49.74
67397;BME280;57728;50.448;18.824;2023-03-14T00:22:27;96303.13;;;11.04;49.72
67397;BME280;57728;50.448;18.824;2023-03-14T00:24:29;96247.94;;;10.78;49.83
67397;BME280;57728;50.448;18.824;2023-03-14T00:26:31;96117.50;;;10.01;49.84
67397;BME280;57728;50.448;18.824;2023-03-14T00:28:32;96230.22;;;10.86;49.55
67397;BME280;57728;50.448;18.824;2023-03-14T00:30:34;96146.28;;;10.38;49.55
67397;BME280;57728;50.448;18.824;2023-03-14T00:32:39;96232.66;;;10.97;49.79
67397;BME280;57728;50.448;18.824;2023-03-14T00:34:40;96258.44;;;11.21;49.64
67397;BME280;57728;50.448;18.824;2023-03-14T00:36:41;96177.69;;;10.85;49.25
67397;BME280;57728;50.448;18.824;2023-03-14T00:38:46;96243.13;;;11.35;49.47
67397;BME280;57728;50.448;18.824;2023-03-14T00:40:49;96235.78;;;11.30;49.45
67397;BME280;57728;50.448;18.824;2023-03-14T00:42:51;96203.78;;;11.01;49.29
67397;BME280;57728;50.448;18.824;2023-03-14T00:44:54;96246.91;;;11.39;49.38
67397;BME280;57728;50.448;18.824;2023-03-14T00:46:56;96186.88;;;11.05;49.20
67397;BME280;57728;50.448;18.824;2023-03-14T00:48:57;96212.41;;;11.19;49.30
67397;BME280;57728;50.448;18.824;2023-03-14T00:51:00;96231.41;;;11.40;49.28
67397;BME280;57728;50.448;18.824;2023-03-14T00:53:03;96185.19;;;11.19;49.04
67397;BME280;57728;50.448;18.824;2023-03-14T00:55:04;96175.41;;;11.13;49.38
67397;BME280;57728;50.448;18.824;2023-03-14T00:57:07;96188.19;;;11.17;49.48
67397;BME280;57728;50.448;18.824;2023-03-14T00:59:08;96092.13;;;10.46;49.55
67397;BME280;57728;50.448;18.824;2023-03-14T01:01:16;96078.03;;;10.34;49.56
67397;BME280;57728;50.448;18.824;2023-03-14T01:03:20;96139.59;;;10.80;49.70
67397;BME280;57728;50.448;18.824;2023-03-14T01:05:24;96151.88;;;10.77;49.97
67397;BME280;57728;50.448;18.824;2023-03-14T01:07:25;96179.81;;;10.98;50.04
67397;BME280;57728;50.448;18.824;2023-03-14T01:09:28;96144.53;;;10.78;50.08
67397;BME280;57728;50.448;18.824;2023-03-14T01:11:34;96040.25;;;10.17;50.15
67397;BME280;57728;50.448;18.824;2023-03-14T01:13:36;96179.81;;;11.04;50.42
67397;BME280;57728;50.448;18.824;2023-03-14T01:15:39;96153.47;;;10.89;50.71
67397;BME280;57728;50.448;18.824;2023-03-14T01:17:41;96125.53;;;10.68;50.64
67397;BME280;57728;50.448;18.824;2023-03-14T01:19:42;96177.63;;;11.00;50.87
67397;BME280;57728;50.448;18.824;2023-03-14T01:21:44;96103.19;;;10.71;50.87
67397;BME280;57728;50.448;18.824;2023-03-14T01:23:47;96058.66;;;10.46;50.90
67397;BME280;57728;50.448;18.824;2023-03-14T01:25:50;96162.88;;;11.12;50.64
67397;BME280;57728;50.448;18.824;2023-03-14T01:27:54;96131.06;;;11.02;50.74
67397;BME280;57728;50.448;18.824;2023-03-14T01:29:56;96139.16;;;11.17;50.75
67397;BME280;57728;50.448;18.824;2023-03-14T01:31:58;96009.16;;;10.44;50.20
67397;BME280;57728;50.448;18.824;2023-03-14T01:34:00;96128.50;;;11.21;50.26
67397;BME280;57728;50.448;18.824;2023-03-14T01:36:03;96082.88;;;11.02;50.19
67397;BME280;57728;50.448;18.824;2023-03-14T01:38:06;96109.41;;;11.26;50.02
67397;BME280;57728;50.448;18.824;2023-03-14T01:40:10;96146.88;;;11.50;49.84
67397;BME280;57728;50.448;18.824;2023-03-14T01:42:13;96118.56;;;11.41;49.73
67397;BME280;57728;50.448;18.824;2023-03-14T01:44:15;96094.41;;;11.34;49.63
67397;BME280;57728;50.448;18.824;2023-03-14T01:46:42;96120.13;;;11.52;49.29
67397;BME280;57728;50.448;18.824;2023-03-14T01:49:04;96138.00;;;11.68;49.15
67397;BME280;57728;50.448;18.824;2023-03-14T01:51:47;96129.22;;;11.77;49.14
67397;BME280;57728;50.448;18.824;2023-03-14T01:53:53;96136.53;;;11.81;48.88
67397;BME280;57728;50.448;18.824;2023-03-14T01:56:01;96130.50;;;11.84;48.64
67397;BME280;57728;50.448;18.824;2023-03-14T01:58:05;96067.56;;;11.51;48.57
67397;BME280;57728;50.448;18.824;2023-03-14T02:00:14;96098.16;;;11.78;48.58
67397;BME280;57728;50.448;18.824;2023-03-14T02:02:24;96043.69;;;11.38;48.32
67397;BME280;57728;50.448;18.824;2023-03-14T02:04:33;96099.19;;;11.82;47.93
67397;BME280;57728;50.448;18.824;2023-03-14T02:06:50;96136.13;;;12.03;47.97
67397;BME280;57728;50.448;18.824;2023-03-14T02:09:02;96093.19;;;11.85;47.64
67397;BME280;57728;50.448;18.824;2023-03-14T02:11:09;96122.78;;;12.02;47.37
67397;BME280;57728;50.448;18.824;2023-03-14T02:13:30;96134.50;;;12.02;47.55
67397;BME280;57728;50.448;18.824;2023-03-14T02:15:46;96063.91;;;11.66;47.55
67397;BME280;57728;50.448;18.824;2023-03-14T02:18:26;96065.63;;;11.86;47.50
67397;BME280;57728;50.448;18.824;2023-03-14T02:23:18;96090.44;;;12.14;47.23
67397;BME280;57728;50.448;18.824;2023-03-14T02:25:31;96084.78;;;12.11;47.26
67397;BME280;57728;50.448;18.824;2023-03-14T02:27:39;96011.09;;;11.57;47.36
67397;BME280;57728;50.448;18.824;2023-03-14T02:29:49;95985.09;;;11.41;47.32
67397;BME280;57728;50.448;18.824;2023-03-14T02:31:52;96098.72;;;12.09;47.36
67397;BME280;57728;50.448;18.824;2023-03-14T02:33:56;96076.75;;;11.90;47.42
67397;BME280;57728;50.448;18.824;2023-03-14T02:36:07;96099.28;;;12.06;47.43
67397;BME280;57728;50.448;18.824;2023-03-14T02:38:33;96105.00;;;12.04;47.39
67397;BME280;57728;50.448;18.824;2023-03-14T02:40:42;96077.34;;;11.87;47.47
67397;BME280;57728;50.448;18.824;2023-03-14T02:42:44;96093.28;;;12.04;47.52
67397;BME280;57728;50.448;18.824;2023-03-14T02:47:15;96021.75;;;11.53;47.33
67397;BME280;57728;50.448;18.824;2023-03-14T02:49:17;96102.56;;;12.03;47.44
67397;BME280;57728;50.448;18.824;2023-03-14T02:51:21;96038.25;;;11.67;47.41
67397;BME280;57728;50.448;18.824;2023-03-14T02:53:30;96077.59;;;11.91;47.64
67397;BME280;57728;50.448;18.824;2023-03-14T02:55:39;96092.88;;;11.86;47.58
67397;BME280;57728;50.448;18.824;2023-03-14T02:57:45;96109.69;;;11.99;47.65
67397;BME280;57728;50.448;18.824;2023-03-14T02:59:48;96114.78;;;12.11;47.54
67397;BME280;57728;50.448;18.824;2023-03-14T03:01:53;96107.72;;;12.04;47.34
67397;BME280;57728;50.448;18.824;2023-03-14T03:03:54;96085.00;;;11.85;47.38
67397;BME280;57728;50.448;18.824;2023-03-14T03:05:56;96116.69;;;12.10;47.45
67397;BME280;57728;50.448;18.824;2023-03-14T03:07:59;96109.31;;;12.11;47.41
67397;BME280;57728;50.448;18.824;2023-03-14T03:10:00;96131.59;;;12.23;47.44
67397;BME280;57728;50.448;18.824;2023-03-14T03:12:03;96097.22;;;11.87;47.31
67397;BME280;57728;50.448;18.824;2023-03-14T03:14:04;96146.97;;;12.09;47.46
67397;BME280;57728;50.448;18.824;2023-03-14T03:16:06;96170.91;;;12.17;47.75
67397;BME280;57728;50.448;18.824;2023-03-14T03:18:10;96130.88;;;11.78;47.70
67397;BME280;57728;50.448;18.824;2023-03-14T03:20:12;96208.88;;;12.13;48.24
67397;BME280;57728;50.448;18.824;2023-03-14T03:22:14;96167.13;;;11.73;48.11
67397;BME280;57728;50.448;18.824;2023-03-14T03:24:18;96191.88;;;11.82;48.31
67397;BME280;57728;50.448;18.824;2023-03-14T03:26:19;96186.50;;;11.72;48.74
67397;BME280;57728;50.448;18.824;2023-03-14T03:28:21;96196.34;;;11.67;48.85
67397;BME280;57728;50.448;18.824;2023-03-14T03:30:24;96230.66;;;11.74;49.02
67397;BME280;57728;50.448;18.824;2023-03-14T03:32:26;96172.06;;;11.31;49.10
67397;BME280;57728;50.448;18.824;2023-03-14T03:34:28;96217.94;;;11.53;49.48
67397;BME280;57728;50.448;18.824;2023-03-14T03:36:32;96192.19;;;11.30;49.51
67397;BME280;57728;50.448;18.824;2023-03-14T03:38:34;96190.91;;;11.23;49.79
67397;BME280;57728;50.448;18.824;2023-03-14T03:40:38;96180.59;;;11.14;49.79
67397;BME280;57728;50.448;18.824;2023-03-14T03:42:40;96202.03;;;11.21;50.05
67397;BME280;57728;50.448;18.824;2023-03-14T03:44:44;96204.25;;;11.14;50.17
67397;BME280;57728;50.448;18.824;2023-03-14T03:46:46;96079.91;;;10.33;50.07
67397;BME280;57728;50.448;18.824;2023-03-14T03:48:54;96087.53;;;10.37;50.46
67397;BME280;57728;50.448;18.824;2023-03-14T03:50:56;96178.22;;;10.97;50.51
67397;BME280;57728;50.448;18.824;2023-03-14T03:52:58;96190.69;;;10.98;50.60
67397;BME280;57728;50.448;18.824;2023-03-14T03:55:00;96122.81;;;10.62;50.66
67397;BME280;57728;50.448;18.824;2023-03-14T03:57:03;96117.38;;;10.57;50.78
67397;BME280;57728;50.448;18.824;2023-03-14T03:59:04;96148.34;;;10.77;50.78
67397;BME280;57728;50.448;18.824;2023-03-14T04:01:06;96052.25;;;10.01;50.89
67397;BME280;57728;50.448;18.824;2023-03-14T04:03:08;96014.78;;;9.82;50.83
67397;BME280;57728;50.448;18.824;2023-03-14T04:05:10;96178.78;;;10.84;51.09
67397;BME280;57728;50.448;18.824;2023-03-14T04:07:15;96160.06;;;10.67;51.14
67397;BME280;57728;50.448;18.824;2023-03-14T04:09:17;96034.34;;;9.94;51.12
67397;BME280;57728;50.448;18.824;2023-03-14T04:11:42;96135.06;;;10.65;51.32
67397;BME280;57728;50.448;18.824;2023-03-14T04:13:56;96145.66;;;10.72;51.32
67397;BME280;57728;50.448;18.824;2023-03-14T04:15:58;96124.47;;;10.58;51.54
67397;BME280;57728;50.448;18.824;2023-03-14T04:18:02;96059.53;;;10.26;51.57
67397;BME280;57728;50.448;18.824;2023-03-14T04:20:06;96085.91;;;10.36;51.75
67397;BME280;57728;50.448;18.824;2023-03-14T04:22:11;96096.50;;;10.42;51.89
67397;BME280;57728;50.448;18.824;2023-03-14T04:24:25;96100.31;;;10.36;51.85
67397;BME280;57728;50.448;18.824;2023-03-14T04:26:31;96073.94;;;10.26;52.04
67397;BME280;57728;50.448;18.824;2023-03-14T04:28:33;96042.22;;;10.01;52.02
67397;BME280;57728;50.448;18.824;2023-03-14T04:30:37;96091.06;;;10.42;52.14
67397;BME280;57728;50.448;18.824;2023-03-14T04:32:45;96122.00;;;10.62;52.10
67397;BME280;57728;50.448;18.824;2023-03-14T04:34:46;96113.56;;;10.53;52.04
67397;BME280;57728;50.448;18.824;2023-03-14T04:36:48;96107.03;;;10.59;52.12
67397;BME280;57728;50.448;18.824;2023-03-14T04:38:54;96078.03;;;10.39;52.33
67397;BME280;57728;50.448;18.824;2023-03-14T04:40:59;96030.19;;;10.18;52.32
67397;BME280;57728;50.448;18.824;2023-03-14T04:43:07;96108.69;;;10.60;52.40
67397;BME280;57728;50.448;18.824;2023-03-14T04:45:12;96042.13;;;10.27;52.33
67397;BME280;57728;50.448;18.824;2023-03-14T04:47:15;95987.84;;;10.01;52.41
67397;BME280;57728;50.448;18.824;2023-03-14T04:49:18;95965.03;;;9.87;52.46
67397;BME280;57728;50.448;18.824;2023-03-14T04:51:20;96017.13;;;10.20;52.60
67397;BME280;57728;50.448;18.824;2023-03-14T04:53:24;96055.41;;;10.44;52.61
67397;BME280;57728;50.448;18.824;2023-03-14T04:55:29;95987.28;;;10.04;52.67
67397;BME280;57728;50.448;18.824;2023-03-14T04:57:31;96078.75;;;10.60;52.80
67397;BME280;57728;50.448;18.824;2023-03-14T04:59:33;96048.34;;;10.43;52.58
67397;BME280;57728;50.448;18.824;2023-03-14T05:01:45;96079.28;;;10.62;52.60
67397;BME280;57728;50.448;18.824;2023-03-14T05:04:06;96010.34;;;10.17;52.76
67397;BME280;57728;50.448;18.824;2023-03-14T05:06:34;96057.31;;;10.43;52.92
67397;BME280;57728;50.448;18.824;2023-03-14T05:08:47;96053.81;;;10.32;52.73
67397;BME280;57728;50.448;18.824;2023-03-14T05:11:27;96054.06;;;10.36;52.84
67397;BME280;57728;50.448;18.824;2023-03-14T05:13:39;96009.56;;;10.06;53.13
67397;BME280;57728;50.448;18.824;2023-03-14T05:16:16;96041.84;;;10.28;53.23
67397;BME280;57728;50.448;18.824;2023-03-14T05:18:27;96039.97;;;10.24;53.37
67397;BME280;57728;50.448;18.824;2023-03-14T05:20:50;96067.94;;;10.35;53.30
67397;BME280;57728;50.448;18.824;2023-03-14T05:23:11;96038.63;;;10.16;53.36
67397;BME280;57728;50.448;18.824;2023-03-14T05:25:25;96055.16;;;10.25;53.62
67397;BME280;57728;50.448;18.824;2023-03-14T05:27:43;95908.41;;;9.34;53.71
67397;BME280;57728;50.448;18.824;2023-03-14T05:30:04;96041.88;;;10.18;53.66
67397;BME280;57728;50.448;18.824;2023-03-14T05:32:40;95990.34;;;9.82;53.92
67397;BME280;57728;50.448;18.824;2023-03-14T05:35:00;96050.56;;;10.15;53.95
67397;BME280;57728;50.448;18.824;2023-03-14T05:37:28;96013.16;;;9.86;54.07
67397;BME280;57728;50.448;18.824;2023-03-14T05:39:48;96026.69;;;10.02;54.02
67397;BME280;57728;50.448;18.824;2023-03-14T05:42:27;96023.66;;;10.13;53.85
67397;BME280;57728;50.448;18.824;2023-03-14T05:44:40;95906.50;;;9.34;53.85
67397;BME280;57728;50.448;18.824;2023-03-14T05:47:00;96064.13;;;10.41;53.72
67397;BME280;57728;50.448;18.824;2023-03-14T05:49:07;96045.06;;;10.46;53.79
67397;BME280;57728;50.448;18.824;2023-03-14T05:51:28;95973.66;;;10.14;53.33
67397;BME280;57728;50.448;18.824;2023-03-14T05:53:58;96010.03;;;10.39;53.53
67397;BME280;57728;50.448;18.824;2023-03-14T05:56:19;95945.66;;;10.09;53.45
67397;BME280;57728;50.448;18.824;2023-03-14T05:58:30;96017.84;;;10.51;53.38
67397;BME280;57728;50.448;18.824;2023-03-14T06:00:52;95934.78;;;10.09;53.53
67397;BME280;57728;50.448;18.824;2023-03-14T06:03:11;95923.69;;;10.00;53.62
67397;BME280;57728;50.448;18.824;2023-03-14T06:05:17;95988.50;;;10.43;53.58
67397;BME280;57728;50.448;18.824;2023-03-14T06:07:20;96011.91;;;10.44;53.84
67397;BME280;57728;50.448;18.824;2023-03-14T06:09:21;96000.19;;;10.43;53.55
67397;BME280;57728;50.448;18.824;2023-03-14T06:11:24;95810.19;;;9.16;53.73
67397;BME280;57728;50.448;18.824;2023-03-14T06:13:27;95964.34;;;10.21;53.60
67397;BME280;57728;50.448;18.824;2023-03-14T06:15:28;95994.22;;;10.41;53.67
67397;BME280;57728;50.448;18.824;2023-03-14T06:17:31;96008.31;;;10.54;53.74
67397;BME280;57728;50.448;18.824;2023-03-14T06:19:45;96008.25;;;10.59;53.61
67397;BME280;57728;50.448;18.824;2023-03-14T06:21:48;95818.25;;;9.42;53.45
67397;BME280;57728;50.448;18.824;2023-03-14T06:23:49;95857.47;;;9.75;53.47
67397;BME280;57728;50.448;18.824;2023-03-14T06:25:52;95977.50;;;10.63;53.61
67397;BME280;57728;50.448;18.824;2023-03-14T06:27:56;95875.34;;;9.92;53.59
67397;BME280;57728;50.448;18.824;2023-03-14T06:29:58;95852.25;;;9.89;53.57
67397;BME280;57728;50.448;18.824;2023-03-14T06:32:01;95966.88;;;10.67;53.57
67397;BME280;57728;50.448;18.824;2023-03-14T06:34:03;95910.22;;;10.35;53.38
67397;BME280;57728;50.448;18.824;2023-03-14T06:36:07;95948.97;;;10.61;53.25
67397;BME280;57728;50.448;18.824;2023-03-14T06:38:11;95887.13;;;10.27;53.07
67397;BME280;57728;50.448;18.824;2023-03-14T06:40:13;95893.84;;;10.45;52.82
67397;BME280;57728;50.448;18.824;2023-03-14T06:42:31;95951.97;;;10.94;52.69
67397;BME280;57728;50.448;18.824;2023-03-14T06:44:34;95804.19;;;10.24;52.20
67397;BME280;57728;50.448;18.824;2023-03-14T06:46:35;95941.16;;;11.18;51.95
67397;BME280;57728;50.448;18.824;2023-03-14T06:48:37;95949.66;;;11.41;51.46
67397;BME280;57728;50.448;18.824;2023-03-14T06:50:39;95910.53;;;11.31;50.97
67397;BME280;57728;50.448;18.824;2023-03-14T06:52:40;95857.75;;;10.98;50.93
67397;BME280;57728;50.448;18.824;2023-03-14T06:54:50;95964.75;;;11.86;50.53
67397;BME280;57728;50.448;18.824;2023-03-14T06:56:56;95947.50;;;11.96;50.42
67397;BME280;57728;50.448;18.824;2023-03-14T06:58:57;95910.13;;;11.73;49.90
67397;BME280;57728;50.448;18.824;2023-03-14T07:01:01;95925.47;;;11.87;49.54
67397;BME280;57728;50.448;18.824;2023-03-14T07:03:14;95955.50;;;12.12;49.52
67397;BME280;57728;50.448;18.824;2023-03-14T07:05:18;95852.66;;;11.45;49.57
67397;BME280;57728;50.448;18.824;2023-03-14T07:07:19;95971.72;;;12.22;48.90
67397;BME280;57728;50.448;18.824;2023-03-14T07:09:22;95913.25;;;11.85;48.66
67397;BME280;57728;50.448;18.824;2023-03-14T07:11:31;95836.38;;;11.40;48.46
67397;BME280;57728;50.448;18.824;2023-03-14T07:13:33;95944.22;;;11.94;48.56
67397;BME280;57728;50.448;18.824;2023-03-14T07:15:39;95973.47;;;12.13;48.52
67397;BME280;57728;50.448;18.824;2023-03-14T07:17:44;95953.41;;;12.03;48.53
67397;BME280;57728;50.448;18.824;2023-03-14T07:19:45;95875.38;;;11.59;48.24
67397;BME280;57728;50.448;18.824;2023-03-14T07:21:49;95970.56;;;12.28;48.12
67397;BME280;57728;50.448;18.824;2023-03-14T07:23:55;95950.59;;;12.09;48.39
67397;BME280;57728;50.448;18.824;2023-03-14T07:25:56;95896.44;;;11.78;48.31
67397;BME280;57728;50.448;18.824;2023-03-14T07:28:00;95954.31;;;12.18;48.10
67397;BME280;57728;50.448;18.824;2023-03-14T07:30:03;96013.41;;;12.47;47.99
67397;BME280;57728;50.448;18.824;2023-03-14T07:32:05;95943.53;;;12.08;48.01
67397;BME280;57728;50.448;18.824;2023-03-14T07:34:07;95879.03;;;11.74;47.67
67397;BME280;57728;50.448;18.824;2023-03-14T07:36:12;95865.41;;;11.74;47.82
67397;BME280;57728;50.448;18.824;2023-03-14T07:38:17;95887.03;;;11.89;47.76
67397;BME280;57728;50.448;18.824;2023-03-14T07:40:38;96011.53;;;12.66;47.96
67397;BME280;57728;50.448;18.824;2023-03-14T07:42:42;95983.84;;;12.54;47.75
67397;BME280;57728;50.448;18.824;2023-03-14T07:44:50;95957.06;;;12.37;47.27
67397;BME280;57728;50.448;18.824;2023-03-14T07:46:53;96009.44;;;12.82;47.63
67397;BME280;57728;50.448;18.824;2023-03-14T07:48:54;95922.97;;;12.15;47.03
67397;BME280;57728;50.448;18.824;2023-03-14T07:50:56;96020.09;;;12.79;47.20
67397;BME280;57728;50.448;18.824;2023-03-14T07:52:58;95968.81;;;12.37;47.21
67397;BME280;57728;50.448;18.824;2023-03-14T07:54:59;95967.97;;;12.37;47.27
67397;BME280;57728;50.448;18.824;2023-03-14T07:57:01;96003.25;;;12.52;47.43
67397;BME280;57728;50.448;18.824;2023-03-14T07:59:03;96002.81;;;12.45;47.37
67397;BME280;57728;50.448;18.824;2023-03-14T08:01:05;96001.66;;;12.51;47.69
67397;BME280;57728;50.448;18.824;2023-03-14T08:03:06;96002.44;;;12.52;47.63
67397;BME280;57728;50.448;18.824;2023-03-14T08:05:09;96009.41;;;12.63;47.67
67397;BME280;57728;50.448;18.824;2023-03-14T08:07:11;95982.84;;;12.50;47.70
67397;BME280;57728;50.448;18.824;2023-03-14T08:09:12;96005.44;;;12.75;48.02
67397;BME280;57728;50.448;18.824;2023-03-14T08:11:14;96037.81;;;13.00;47.89
67397;BME280;57728;50.448;18.824;2023-03-14T08:13:16;95980.72;;;12.66;48.01
67397;BME280;57728;50.448;18.824;2023-03-14T08:15:17;95995.09;;;12.71;47.62
67397;BME280;57728;50.448;18.824;2023-03-14T08:17:19;95990.44;;;12.53;47.75
67397;BME280;57728;50.448;18.824;2023-03-14T08:19:21;96036.56;;;12.73;47.99
67397;BME280;57728;50.448;18.824;2023-03-14T08:21:22;96058.34;;;12.79;47.98
67397;BME280;57728;50.448;18.824;2023-03-14T08:23:24;96050.19;;;12.73;47.98
67397;BME280;57728;50.448;18.824;2023-03-14T08:25:27;95941.13;;;12.06;48.19
67397;BME280;57728;50.448;18.824;2023-03-14T08:27:28;96017.53;;;12.68;48.17
67397;BME280;57728;50.448;18.824;2023-03-14T08:29:31;96050.00;;;12.89;48.10
67397;BME280;57728;50.448;18.824;2023-03-14T08:31:32;96041.50;;;12.90;48.16
67397;BME280;57728;50.448;18.824;2023-03-14T08:33:33;95850.16;;;11.92;47.71
67397;BME280;57728;50.448;18.824;2023-03-14T08:35:38;95914.81;;;12.72;47.50
67397;BME280;57728;50.448;18.824;2023-03-14T08:37:40;95969.06;;;13.31;47.00
67397;BME280;57728;50.448;18.824;2023-03-14T08:39:42;96024.06;;;13.76;46.56
67397;BME280;57728;50.448;18.824;2023-03-14T08:41:44;96039.31;;;13.83;46.79
67397;BME280;57728;50.448;18.824;2023-03-14T08:43:45;96024.19;;;13.85;46.24
67397;BME280;57728;50.448;18.824;2023-03-14T08:45:47;95913.94;;;13.10;46.59
67397;BME280;57728;50.448;18.824;2023-03-14T08:47:49;95928.50;;;13.05;46.82
67397;BME280;57728;50.448;18.824;2023-03-14T08:49:50;95915.94;;;12.71;47.04
67397;BME280;57728;50.448;18.824;2023-03-14T08:51:51;96035.41;;;13.37;47.55
67397;BME280;57728;50.448;18.824;2023-03-14T08:53:53;95966.53;;;12.83;47.54
67397;BME280;57728;50.448;18.824;2023-03-14T08:55:55;95900.44;;;12.29;47.70
67397;BME280;57728;50.448;18.824;2023-03-14T08:57:56;95923.97;;;12.44;48.21
67397;BME280;57728;50.448;18.824;2023-03-14T08:59:58;95990.00;;;12.65;48.46
67397;BME280;57728;50.448;18.824;2023-03-14T09:02:00;96031.78;;;12.84;48.55
67397;BME280;57728;50.448;18.824;2023-03-14T09:04:04;95902.81;;;11.92;48.93
67397;BME280;57728;50.448;18.824;2023-03-14T09:06:08;95878.03;;;11.64;49.15
67397;BME280;57728;50.448;18.824;2023-03-14T09:08:10;96024.00;;;12.53;49.43
67397;BME280;57728;50.448;18.824;2023-03-14T09:10:12;95999.16;;;12.31;49.49
67397;BME280;57728;50.448;18.824;2023-03-14T09:12:14;96063.94;;;12.68;49.86
67397;BME280;57728;50.448;18.824;2023-03-14T09:14:15;96048.34;;;12.50;50.10
67397;BME280;57728;50.448;18.824;2023-03-14T09:16:16;96053.41;;;12.56;50.06
67397;BME280;57728;50.448;18.824;2023-03-14T09:18:19;96047.59;;;12.44;50.07
67397;BME280;57728;50.448;18.824;2023-03-14T09:20:21;96052.75;;;12.46;50.16
67397;BME280;57728;50.448;18.824;2023-03-14T09:22:22;96075.06;;;12.72;50.25
67397;BME280;57728;50.448;18.824;2023-03-14T09:24:24;95996.22;;;12.27;50.19
67397;BME280;57728;50.448;18.824;2023-03-14T09:26:25;96056.38;;;12.60;49.87
67397;BME280;57728;50.448;18.824;2023-03-14T09:28:27;96054.25;;;12.57;49.95
67397;BME280;57728;50.448;18.824;2023-03-14T09:30:29;95959.00;;;11.88;49.94
67397;BME280;57728;50.448;18.824;2023-03-14T09:32:31;96031.47;;;12.43;49.90
67397;BME280;57728;50.448;18.824;2023-03-14T09:34:32;96080.13;;;12.84;50.09
67397;BME280;57728;50.448;18.824;2023-03-14T09:36:34;96075.91;;;12.92;50.11
67397;BME280;57728;50.448;18.824;2023-03-14T09:38:38;95951.47;;;12.04;49.61
67397;BME280;57728;50.448;18.824;2023-03-14T09:40:40;95944.66;;;12.26;49.69
67397;BME280;57728;50.448;18.824;2023-03-14T09:42:42;95943.72;;;12.35;49.46
67397;BME280;57728;50.448;18.824;2023-03-14T09:47:05;95987.06;;;12.80;49.32
67397;BME280;57728;50.448;18.824;2023-03-14T09:49:16;95980.78;;;12.80;48.91
67397;BME280;57728;50.448;18.824;2023-03-14T09:51:26;95967.34;;;12.83;48.79
67397;BME280;57728;50.448;18.824;2023-03-14T09:53:46;96065.94;;;13.58;48.68
67397;BME280;57728;50.448;18.824;2023-03-14T09:55:50;96036.25;;;13.32;48.60
67397;BME280;57728;50.448;18.824;2023-03-14T09:58:04;96028.06;;;13.32;48.72
67397;BME280;57728;50.448;18.824;2023-03-14T10:00:25;96065.44;;;13.56;48.64
67397;BME280;57728;50.448;18.824;2023-03-14T10:02:34;96033.00;;;13.30;49.03
67397;BME280;57728;50.448;18.824;2023-03-14T10:04:38;95951.63;;;12.94;48.95
67397;BME280;57728;50.448;18.824;2023-03-14T10:06:44;96080.56;;;13.67;48.85
67397;BME280;57728;50.448;18.824;2023-03-14T10:08:47;96012.94;;;13.21;48.53
67397;BME280;57728;50.448;18.824;2023-03-14T10:10:48;96025.63;;;13.31;48.66
67397;BME280;57728;50.448;18.824;2023-03-14T10:12:58;96079.13;;;13.70;48.77
67397;BME280;57728;50.448;18.824;2023-03-14T10:15:10;96096.06;;;13.72;48.63
67397;BME280;57728;50.448;18.824;2023-03-14T10:17:14;96002.38;;;13.14;48.87
67397;BME280;57728;50.448;18.824;2023-03-14T10:19:17;96082.72;;;13.70;48.60
67397;BME280;57728;50.448;18.824;2023-03-14T10:21:28;96067.66;;;13.54;48.74
67397;BME280;57728;50.448;18.824;2023-03-14T10:23:32;96086.78;;;13.54;48.68
67397;BME280;57728;50.448;18.824;2023-03-14T10:25:38;95974.72;;;12.83;48.85
67397;BME280;57728;50.448;18.824;2023-03-14T10:27:42;96108.00;;;13.62;49.16
67397;BME280;57728;50.448;18.824;2023-03-14T10:29:57;96102.09;;;13.55;48.93
67397;BME280;57728;50.448;18.824;2023-03-14T10:32:06;96059.38;;;13.21;49.20
67397;BME280;57728;50.448;18.824;2023-03-14T10:34:20;96068.91;;;13.23;49.55
67397;BME280;57728;50.448;18.824;2023-03-14T10:36:35;96098.25;;;13.37;50.15
67397;BME280;57728;50.448;18.824;2023-03-14T10:38:37;95986.22;;;12.42;50.90
67397;BME280;57728;50.448;18.824;2023-03-14T10:40:42;96096.22;;;13.04;51.41
67397;BME280;57728;50.448;18.824;2023-03-14T10:42:50;96113.66;;;13.08;51.42
67397;BME280;57728;50.448;18.824;2023-03-14T10:44:58;96108.38;;;12.93;52.00
67397;BME280;57728;50.448;18.824;2023-03-14T10:47:04;96080.81;;;12.70;52.79
67397;BME280;57728;50.448;18.824;2023-03-14T10:49:06;96108.00;;;12.81;53.02
67397;BME280;57728;50.448;18.824;2023-03-14T10:51:26;96105.63;;;12.74;53.64
67397;BME280;57728;50.448;18.824;2023-03-14T10:55:46;96119.50;;;12.53;55.23
67397;BME280;57728;50.448;18.824;2023-03-14T10:57:47;96034.75;;;11.91;55.57
67397;BME280;57728;50.448;18.824;2023-03-14T10:59:50;96079.91;;;12.08;55.79
67397;BME280;57728;50.448;18.824;2023-03-14T11:02:06;96120.09;;;12.26;56.60
67397;BME280;57728;50.448;18.824;2023-03-14T11:07:42;96120.75;;;12.13;57.27
67397;BME280;57728;50.448;18.824;2023-03-14T11:14:34;96111.38;;;11.95;58.49
67397;BME280;57728;50.448;18.824;2023-03-14T11:16:57;96123.28;;;12.04;58.98